Time;durP1;ratioP1;P1;durP2;ratioP2;P2;SDS_P1;SDS_P2;PMS_P1;PMS_P2;Temp;Humidity;BMP_temperature;BMP_pressure;BME280_temperature;BME280_humidity;BME280_pressure;Samples;Min_cycle;Max_cycle;Signal;HPM_P1;HPM_P2
2022/02/17 00:02:26;;;;;;;72.88;33.17;;;;;;;5.19;100.00;99393.66;6296597;28;20059;-69
2022/02/17 00:05:28;;;;;;;75.25;35.00;;;;;;;5.28;100.00;99392.34;6280413;28;20074;-70
2022/02/17 00:08:30;;;;;;;75.40;33.22;;;;;;;5.12;100.00;99397.44;6296680;28;20048;-69
2022/02/17 00:11:31;;;;;;;79.95;35.55;;;;;;;5.18;100.00;99389.38;6296603;28;20048;-69
2022/02/17 00:14:32;;;;;;;79.50;34.63;;;;;;;5.27;100.00;99383.72;6280076;28;20087;-69
2022/02/17 00:17:33;;;;;;;83.18;35.95;;;;;;;5.23;100.00;99382.22;6297563;28;20045;-69
2022/02/17 00:20:34;;;;;;;65.72;29.17;;;;;;;5.16;100.00;99378.25;6296389;28;20060;-70
2022/02/17 00:23:35;;;;;;;82.85;36.58;;;;;;;5.25;100.00;99385.59;6297598;28;20040;-69
2022/02/17 00:26:36;;;;;;;84.28;34.35;;;;;;;5.18;100.00;99374.69;6296175;28;20048;-69
2022/02/17 00:29:36;;;;;;;80.75;33.53;;;;;;;5.22;100.00;99373.63;6297613;28;20098;-69
2022/02/17 00:32:38;;;;;;;91.75;38.72;;;;;;;5.30;100.00;99375.00;6263086;28;20048;-70
2022/02/17 00:35:39;;;;;;;96.43;37.60;;;;;;;5.29;100.00;99386.25;6296196;28;20067;-69
2022/02/17 00:38:41;;;;;;;79.83;34.47;;;;;;;5.32;100.00;99374.00;6297086;28;20418;-73
2022/02/17 00:41:42;;;;;;;84.43;36.92;;;;;;;5.27;100.00;99380.31;6297219;28;20055;-73
2022/02/17 00:44:43;;;;;;;75.88;34.13;;;;;;;5.24;100.00;99382.13;6257405;28;20090;-69
2022/02/17 00:47:44;;;;;;;86.93;37.70;;;;;;;5.21;100.00;99377.13;6270824;28;20446;-69
2022/02/17 00:50:50;;;;;;;81.45;34.88;;;;;;;5.15;100.00;99364.50;6304534;28;20052;-69
2022/02/17 00:53:51;;;;;;;77.10;31.40;;;;;;;5.16;100.00;99367.91;6270811;28;20095;-69
2022/02/17 00:56:52;;;;;;;82.40;36.65;;;;;;;5.05;100.00;99355.53;6271005;28;20041;-69
2022/02/17 00:59:52;;;;;;;86.13;35.65;;;;;;;4.99;100.00;99351.47;6272266;28;20514;-73
2022/02/17 01:02:53;;;;;;;78.53;33.35;;;;;;;5.08;100.00;99351.94;6270822;28;20543;-73
2022/02/17 01:05:54;;;;;;;72.55;32.47;;;;;;;4.97;100.00;99335.22;6270946;28;20053;-73
2022/02/17 01:08:55;;;;;;;69.88;32.92;;;;;;;4.99;100.00;99327.38;6288390;28;20041;-69
2022/02/17 01:11:56;;;;;;;80.35;34.58;;;;;;;5.01;100.00;99325.56;6294767;28;20059;-69
2022/02/17 01:14:56;;;;;;;69.85;32.05;;;;;;;5.07;100.00;99319.25;6291439;28;20041;-70
2022/02/17 01:17:58;;;;;;;76.95;33.83;;;;;;;5.04;100.00;99323.66;6271078;28;20048;-70
2022/02/17 01:20:58;;;;;;;64.35;28.70;;;;;;;4.98;100.00;99298.13;6270979;28;20051;-70
2022/02/17 01:23:59;;;;;;;74.65;31.23;;;;;;;5.06;100.00;99305.47;6271152;28;20037;-70
2022/02/17 01:27:00;;;;;;;62.78;28.85;;;;;;;5.14;100.00;99298.16;6271108;28;20056;-70
2022/02/17 01:30:01;;;;;;;69.28;31.13;;;;;;;5.04;100.00;99284.03;6270943;28;20045;-70
2022/02/17 01:33:02;;;;;;;61.47;30.02;;;;;;;4.92;100.00;99280.31;6270909;28;20545;-70
2022/02/17 01:36:07;;;;;;;65.28;31.10;;;;;;;5.10;100.00;99280.28;6253189;28;20106;-70
2022/02/17 01:39:09;;;;;;;58.08;28.67;;;;;;;4.92;100.00;99276.88;6253041;28;20053;-70
2022/02/17 01:42:10;;;;;;;59.00;27.33;;;;;;;4.92;100.00;99269.97;6294851;28;20143;-73
2022/02/17 01:45:11;;;;;;;55.92;26.75;;;;;;;4.89;100.00;99261.53;6294438;28;20462;-73
2022/02/17 01:48:12;;;;;;;51.35;24.27;;;;;;;4.91;100.00;99262.28;6294383;28;20079;-73
2022/02/17 01:51:13;;;;;;;59.70;27.17;;;;;;;4.90;100.00;99250.28;6294554;28;20055;-70
2022/02/17 01:54:13;;;;;;;62.50;27.52;;;;;;;4.89;100.00;99249.44;6295149;28;20040;-69
2022/02/17 01:57:34;;;;;;;75.00;30.73;;;;;;;5.01;100.00;99246.22;6282538;28;20044;-70
2022/02/17 02:00:35;;;;;;;68.00;29.08;;;;;;;5.01;100.00;99253.16;6282392;28;20040;-70
2022/02/17 02:03:36;;;;;;;73.63;30.77;;;;;;;4.97;100.00;99243.88;6300059;28;20453;-69
2022/02/17 02:06:37;;;;;;;69.20;30.90;;;;;;;4.98;100.00;99232.63;6298574;28;20053;-70
2022/02/17 02:09:39;;;;;;;69.43;30.23;;;;;;;4.98;100.00;99223.13;6282203;28;20063;-71
2022/02/17 02:12:40;;;;;;;62.05;26.65;;;;;;;4.94;100.00;99208.69;6299810;28;20048;-69
2022/02/17 02:15:47;;;;;;;77.78;33.55;;;;;;;4.98;100.00;99209.34;6298601;28;20047;-69
2022/02/17 02:18:48;;;;;;;74.20;33.90;;;;;;;5.01;100.00;99214.38;6298221;28;20430;-70
2022/02/17 02:21:49;;;;;;;60.60;29.13;;;;;;;4.95;100.00;99220.69;6281853;28;20045;-69
2022/02/17 02:24:51;;;;;;;70.50;31.45;;;;;;;4.95;100.00;99210.34;6298248;28;20483;-69
2022/02/17 02:27:54;;;;;;;71.37;33.20;;;;;;;4.98;100.00;99199.00;6281043;28;20041;-69
2022/02/17 02:30:56;;;;;;;86.45;36.92;;;;;;;5.08;100.00;99187.28;6275012;28;20048;-70
2022/02/17 02:33:57;;;;;;;67.95;29.13;;;;;;;5.00;100.00;99174.78;6273422;28;20415;-73
2022/02/17 02:36:57;;;;;;;73.97;33.92;;;;;;;4.96;100.00;99172.41;6281497;28;20049;-73
2022/02/17 02:39:58;;;;;;;88.97;37.47;;;;;;;5.06;100.00;99168.41;6299678;28;20151;-73
2022/02/17 02:42:59;;;;;;;69.30;32.25;;;;;;;5.07;100.00;99161.53;6298758;28;20044;-73
2022/02/17 02:46:00;;;;;;;79.20;34.58;;;;;;;5.07;100.00;99153.75;6283072;28;20065;-73
2022/02/17 02:49:01;;;;;;;75.07;34.00;;;;;;;5.12;100.00;99157.75;6274864;28;20086;-73
2022/02/17 02:52:02;;;;;;;73.28;34.42;;;;;;;5.01;100.00;99149.75;6275017;28;20102;-69
2022/02/17 02:55:03;;;;;;;60.78;25.73;;;;;;;4.98;100.00;99127.47;6274784;28;20041;-69
2022/02/17 02:58:04;;;;;;;75.95;35.28;;;;;;;5.02;100.00;99136.75;6257147;28;20063;-69
2022/02/17 03:01:05;;;;;;;85.03;34.95;;;;;;;5.01;100.00;99109.19;6276970;28;20368;-73
2022/02/17 03:04:06;;;;;;;80.75;33.42;;;;;;;4.92;100.00;99103.69;6298847;28;20038;-73
2022/02/17 03:07:06;;;;;;;71.53;29.42;;;;;;;4.85;100.00;99101.41;6296938;28;20049;-73
2022/02/17 03:10:08;;;;;;;76.22;33.80;;;;;;;4.91;100.00;99095.09;6299185;28;20044;-70
2022/02/17 03:13:09;;;;;;;90.47;35.38;;;;;;;4.79;100.00;99088.00;6299181;28;20101;-69
2022/02/17 03:16:10;;;;;;;71.10;32.10;;;;;;;4.81;100.00;99086.97;6297804;28;20048;-70
2022/02/17 03:19:13;;;;;;;72.80;31.23;;;;;;;4.83;100.00;99089.50;6297934;28;20049;-70
2022/02/17 03:22:14;;;;;;;93.07;39.00;;;;;;;4.95;100.00;99077.69;6299074;28;20045;-70
2022/02/17 03:25:15;;;;;;;92.00;35.78;;;;;;;4.99;100.00;99092.09;6264556;28;20064;-69
2022/02/17 03:28:16;;;;;;;78.43;33.67;;;;;;;4.87;100.00;99106.50;6281027;28;20048;-70
2022/02/17 03:31:17;;;;;;;88.55;37.13;;;;;;;4.89;100.00;99127.94;6298721;28;20051;-70
2022/02/17 03:34:18;;;;;;;82.70;34.83;;;;;;;4.90;100.00;99139.13;6280961;28;20128;-73
2022/02/17 03:37:19;;;;;;;84.55;34.03;;;;;;;4.94;100.00;99151.81;6298539;28;20040;-73
2022/02/17 03:40:20;;;;;;;86.68;35.72;;;;;;;4.99;100.00;99139.47;6298529;28;20400;-70
2022/02/17 03:43:20;;;;;;;92.40;37.35;;;;;;;5.05;100.00;99135.75;6280392;28;20053;-69
2022/02/17 03:46:21;;;;;;;84.60;36.58;;;;;;;4.94;100.00;99115.63;6272587;28;20459;-70
2022/02/17 03:49:23;;;;;;;82.40;35.05;;;;;;;4.88;100.00;99092.69;6273541;28;20044;-70
2022/02/17 03:52:23;;;;;;;75.68;33.08;;;;;;;4.90;100.00;99082.25;6273629;28;20049;-70
2022/02/17 03:55:24;;;;;;;69.68;29.35;;;;;;;4.89;100.00;99075.41;6273340;28;20041;-69
2022/02/17 04:01:45;;;;;;;67.68;28.33;;;;;;;4.75;100.00;99051.13;6272116;28;20041;-69
2022/02/17 04:04:46;;;;;;;70.75;28.05;;;;;;;4.67;100.00;99050.69;6271872;28;20406;-70
2022/02/17 04:07:46;;;;;;;62.33;26.83;;;;;;;4.64;100.00;99067.19;6273052;28;20049;-70
2022/02/17 04:10:47;;;;;;;78.10;33.22;;;;;;;4.78;100.00;99048.38;6271679;28;20053;-70
2022/02/17 04:13:49;;;;;;;66.68;28.75;;;;;;;4.85;100.00;99041.97;6271737;28;20048;-69
2022/02/17 04:16:50;;;;;;;49.05;23.58;;;;;;;4.66;100.00;99040.47;6271887;28;20057;-69
2022/02/17 04:19:52;;;;;;;71.32;30.48;;;;;;;4.60;100.00;99046.78;6270618;28;20045;-69
2022/02/17 04:22:53;;;;;;;;;;;;;;;4.70;100.00;99052.31;6272136;28;20068;-73
2022/02/17 04:25:54;;;;;;;55.42;26.90;;;;;;;4.67;100.00;99032.59;6272687;28;20371;-69
2022/02/17 04:28:57;;;;;;;56.05;26.60;;;;;;;4.63;100.00;99011.28;6272528;28;20373;-70
2022/02/17 04:31:58;;;;;;;67.93;28.63;;;;;;;4.61;100.00;99005.38;6277894;28;20468;-69
2022/02/17 04:34:59;;;;;;;66.43;29.05;;;;;;;4.64;100.00;99006.94;6296376;28;20048;-69
2022/02/17 04:38:00;;;;;;;60.33;26.45;;;;;;;4.69;100.00;99006.69;6297314;28;20135;-69
2022/02/17 04:44:20;;;;;;;53.90;25.90;;;;;;;4.69;100.00;98996.34;6297341;28;20479;-69
2022/02/17 04:47:21;;;;;;;57.05;26.45;;;;;;;4.70;100.00;98996.28;6295974;28;20048;-70
2022/02/17 04:50:24;;;;;;;56.20;26.23;;;;;;;4.74;100.00;99008.13;6295332;28;20122;-70
2022/02/17 04:53:25;;;;;;;62.88;27.67;;;;;;;4.88;100.00;99007.38;6279020;28;20048;-74
2022/02/17 04:56:26;;;;;;;56.03;26.17;;;;;;;4.85;100.00;99005.78;6297102;28;20518;-71
2022/02/17 04:59:27;;;;;;;48.65;23.80;;;;;;;4.85;100.00;98994.63;6279408;28;20045;-74
2022/02/17 05:02:28;;;;;;;58.80;24.60;;;;;;;4.82;100.00;98994.78;6296855;28;20052;-74
2022/02/17 05:05:29;;;;;;;46.55;21.60;;;;;;;4.73;100.00;98988.34;6296963;28;20072;-75
2022/02/17 05:08:30;;;;;;;60.40;26.80;;;;;;;4.83;100.00;98970.59;6297168;28;20475;-76
2022/02/17 05:11:31;;;;;;;62.25;28.73;;;;;;;4.88;100.00;98963.44;6296988;28;20048;-75
2022/02/17 05:14:31;;;;;;;57.88;26.20;;;;;;;4.87;100.00;98954.00;6279254;28;20056;-76
2022/02/17 05:17:32;;;;;;;60.17;25.95;;;;;;;4.84;100.00;98956.78;6296935;28;20410;-76
2022/02/17 05:20:33;;;;;;;76.93;33.60;;;;;;;4.85;100.00;98963.59;6295498;28;20037;-72
2022/02/17 05:23:34;;;;;;;57.05;29.30;;;;;;;4.94;100.00;98954.50;6283353;28;20055;-76
2022/02/17 05:26:35;;;;;;;63.40;28.80;;;;;;;4.89;100.00;98949.59;6237537;28;20057;-76
2022/02/17 05:29:36;;;;;;;62.08;28.70;;;;;;;4.95;100.00;98953.59;6272136;28;20045;-76
2022/02/17 05:32:41;;;;;;;63.45;27.77;;;;;;;4.89;100.00;98962.50;6294473;28;20044;-73
2022/02/17 05:35:42;;;;;;;69.72;30.75;;;;;;;4.91;100.00;98965.03;6300871;28;20429;-72
2022/02/17 05:38:43;;;;;;;73.93;31.08;;;;;;;4.97;100.00;98957.75;6284685;28;20102;-72
2022/02/17 05:41:44;;;;;;;68.00;30.83;;;;;;;5.10;100.00;98952.72;6280817;28;20128;-73
2022/02/17 05:44:44;;;;;;;70.70;30.52;;;;;;;5.10;100.00;98946.72;6283217;28;20052;-72
2022/02/17 05:47:45;;;;;;;68.68;29.67;;;;;;;5.11;100.00;98945.81;6282783;28;20048;-72
2022/02/17 05:50:46;;;;;;;80.30;33.92;;;;;;;5.20;100.00;98938.34;6286082;28;20048;-73
2022/02/17 05:53:47;;;;;;;58.83;27.00;;;;;;;5.14;100.00;98933.53;6298999;28;20045;-73
2022/02/17 05:56:48;;;;;;;73.87;33.33;;;;;;;5.35;100.00;98935.81;6282456;28;20055;-75
2022/02/17 05:59:49;;;;;;;66.30;31.67;;;;;;;5.20;100.00;98925.44;6298897;28;20285;-77
2022/02/17 06:02:50;;;;;;;78.63;32.80;;;;;;;5.22;100.00;98921.00;6282170;28;20052;-72
2022/02/17 06:05:51;;;;;;;59.03;27.48;;;;;;;5.26;100.00;98924.25;6298759;28;20463;-72
2022/02/17 06:08:52;;;;;;;74.63;32.38;;;;;;;5.29;100.00;98912.88;6300088;28;20050;-72
2022/02/17 06:11:52;;;;;;;71.68;31.52;;;;;;;5.21;100.00;98921.94;6298909;28;20487;-76
2022/02/17 06:14:53;;;;;;;58.55;27.60;;;;;;;5.20;100.00;98932.34;6282316;28;20041;-76
2022/02/17 06:17:54;;;;;;;67.10;31.33;;;;;;;5.25;100.00;98945.88;6285370;28;20474;-76
2022/02/17 06:20:55;;;;;;;71.55;33.67;;;;;;;5.27;100.00;98932.84;6273600;28;20041;-73
2022/02/17 06:23:56;;;;;;;67.95;30.70;;;;;;;5.28;100.00;98934.53;6273489;28;20049;-72
2022/02/17 06:26:57;;;;;;;72.40;32.15;;;;;;;5.31;100.00;98931.75;6277382;28;20061;-76
2022/02/17 06:29:58;;;;;;;65.22;32.47;;;;;;;5.29;100.00;98931.81;6290063;28;20039;-76
2022/02/17 06:32:58;;;;;;;64.65;31.70;;;;;;;5.35;100.00;98926.28;6284365;28;20056;-75
2022/02/17 06:35:59;;;;;;;59.50;28.88;;;;;;;5.24;100.00;98929.50;6293378;28;20583;-76
2022/02/17 06:39:00;;;;;;;60.58;30.85;;;;;;;5.22;100.00;98928.75;6280330;28;20057;-76
2022/02/17 06:42:01;;;;;;;55.90;27.60;;;;;;;5.24;100.00;98926.91;6297711;28;20474;-76
2022/02/17 06:45:03;;;;;;;61.92;30.88;;;;;;;5.29;100.00;98910.31;6297747;28;20040;-76
2022/02/17 06:48:07;;;;;;;46.00;24.65;;;;;;;5.19;100.00;98910.03;6281609;28;20136;-76
2022/02/17 06:51:08;;;;;;;52.67;29.17;;;;;;;5.32;100.00;98913.56;6297487;28;20484;-76
2022/02/17 06:54:11;;;;;;;55.63;29.25;;;;;;;5.32;100.00;98915.31;6281147;28;20045;-76
2022/02/17 06:57:15;;;;;;;55.35;28.35;;;;;;;5.33;100.00;98930.72;6297487;28;20093;-76
2022/02/17 07:00:16;;;;;;;52.33;28.98;;;;;;;5.35;100.00;98930.66;6280952;28;20102;-73
2022/02/17 07:03:18;;;;;;;60.17;31.05;;;;;;;5.38;100.00;98912.38;6298441;28;20044;-73
2022/02/17 07:06:19;;;;;;;53.08;28.55;;;;;;;5.41;100.00;98909.59;6297434;28;20032;-73
2022/02/17 07:09:20;;;;;;;59.00;31.67;;;;;;;5.43;100.00;98913.75;6298373;28;20040;-72
2022/02/17 07:12:21;;;;;;;51.95;29.08;;;;;;;5.46;100.00;98899.84;6296965;28;20083;-72
2022/02/17 07:15:22;;;;;;;49.58;28.02;;;;;;;5.51;100.00;98896.97;6280339;28;20037;-72
2022/02/17 07:18:25;;;;;;;42.85;25.08;;;;;;;5.49;100.00;98880.69;6298163;28;20117;-72
2022/02/17 07:21:26;;;;;;;41.67;24.58;;;;;;;5.47;100.00;98865.25;6296476;28;20048;-72
2022/02/17 07:24:27;;;;;;;38.08;22.10;;;;;;;5.49;100.00;98847.88;6296728;28;20063;-72
2022/02/17 07:27:29;;;;;;;60.72;31.25;;;;;;;5.57;100.00;98824.97;6280437;28;20083;-75
2022/02/17 07:30:30;;;;;;;38.45;22.42;;;;;;;5.53;100.00;98804.56;6280311;28;20036;-76
2022/02/17 07:33:32;;;;;;;45.78;25.10;;;;;;;5.65;100.00;98806.41;6296330;28;20119;-76
2022/02/17 07:36:35;;;;;;;40.75;23.10;;;;;;;5.67;100.00;98812.31;6280117;28;20067;-76
2022/02/17 07:39:35;;;;;;;31.98;20.02;;;;;;;5.63;100.00;98810.84;6279940;28;20059;-71
2022/02/17 07:42:38;;;;;;;43.67;22.30;;;;;;;5.72;100.00;98806.88;6296145;28;20407;-72
2022/02/17 07:45:39;;;;;;;;;;;;;;;5.70;100.00;98809.53;6296748;28;20380;-72
2022/02/17 07:48:40;;;;;;;42.97;21.55;;;;;;;5.75;100.00;98797.16;6296174;28;19924;-72
2022/02/17 07:51:43;;;;;;;33.20;18.63;;;;;;;5.77;100.00;98795.31;6295857;28;20479;-73
2022/02/17 07:54:44;;;;;;;;;;;;;;;5.78;100.00;98780.59;6279723;28;20129;-76
2022/02/17 07:57:45;;;;;;;31.10;16.73;;;;;;;5.74;100.00;98759.25;6297239;28;20367;-76
2022/02/17 08:00:46;;;;;;;29.55;16.90;;;;;;;5.74;100.00;98748.91;6279312;28;20064;-76
2022/02/17 08:03:47;;;;;;;44.72;23.33;;;;;;;5.80;100.00;98737.34;6296940;28;20124;-73
2022/02/17 08:06:48;;;;;;;36.35;19.02;;;;;;;5.82;100.00;98731.13;6296855;28;20036;-72
2022/02/17 08:09:48;;;;;;;43.38;21.90;;;;;;;5.84;100.00;98725.88;6279275;28;20060;-73
2022/02/17 08:12:49;;;;;;;35.45;19.23;;;;;;;5.99;100.00;98714.59;6278851;28;20079;-73
2022/02/17 08:15:52;;;;;;;46.38;24.30;;;;;;;6.24;100.00;98715.63;6295589;28;20128;-72
2022/02/17 08:18:53;;;;;;;30.60;17.15;;;;;;;6.05;100.00;98700.41;6296865;28;20047;-72
2022/02/17 08:21:55;;;;;;;37.70;18.75;;;;;;;6.04;100.00;98701.34;6278591;28;20052;-73
2022/02/17 08:24:56;;;;;;;40.33;21.20;;;;;;;6.11;100.00;98715.53;6295538;28;20056;-73
2022/02/17 08:27:57;;;;;;;35.80;17.48;;;;;;;6.16;100.00;98710.09;6295236;28;20131;-75
2022/02/17 08:30:58;;;;;;;36.13;18.05;;;;;;;6.21;100.00;98705.44;6295408;28;20048;-76
2022/02/17 08:34:06;;;;;;;36.38;21.08;;;;;;;6.30;100.00;98694.50;6295050;28;20115;-76
2022/02/17 08:37:07;;;;;;;30.30;16.88;;;;;;;6.44;100.00;98699.59;6279682;28;20483;-72
2022/02/17 08:40:10;;;;;;;31.80;18.90;;;;;;;6.53;100.00;98697.34;6294907;28;20048;-72
2022/02/17 08:43:13;;;;;;;37.63;19.98;;;;;;;6.51;100.00;98696.63;6294985;28;20072;-76
2022/02/17 08:46:14;;;;;;;31.13;18.30;;;;;;;6.65;100.00;98649.84;6295223;28;20105;-76
2022/02/17 08:49:15;;;;;;;31.45;19.13;;;;;;;6.76;100.00;98659.50;6295076;28;20047;-76
2022/02/17 08:52:16;;;;;;;29.08;16.83;;;;;;;6.73;100.00;98663.13;6295048;28;20105;-76
2022/02/17 08:55:17;;;;;;;30.40;17.05;;;;;;;6.72;100.00;98663.25;6296130;28;20037;-76
2022/02/17 08:58:21;;;;;;;31.13;17.55;;;;;;;6.65;100.00;98661.06;6295040;28;20044;-76
2022/02/17 09:01:21;;;;;;;33.72;18.75;;;;;;;6.78;100.00;98658.47;6295893;28;20052;-72
2022/02/17 09:04:23;;;;;;;32.28;17.63;;;;;;;6.83;100.00;98647.78;6294189;28;20044;-72
2022/02/17 09:07:24;;;;;;;32.70;19.33;;;;;;;7.11;100.00;98649.31;6294690;28;20049;-77
2022/02/17 09:10:26;;;;;;;22.05;14.30;;;;;;;7.20;100.00;98638.28;6294817;28;20442;-76
2022/02/17 09:13:27;;;;;;;27.98;15.63;;;;;;;7.09;100.00;98614.88;6295795;28;20075;-72
2022/02/17 09:16:27;;;;;;;32.72;17.83;;;;;;;7.16;100.00;98649.00;6294636;28;20078;-72
2022/02/17 09:19:28;;;;;;;37.35;21.65;;;;;;;7.21;100.00;98641.75;6294630;28;20077;-72
2022/02/17 09:22:29;;;;;;;29.80;16.83;;;;;;;7.28;100.00;98629.97;6277714;28;20064;-73
2022/02/17 09:25:30;;;;;;;22.67;13.57;;;;;;;7.26;100.00;98631.84;6294598;28;20064;-72
2022/02/17 09:28:31;;;;;;;28.35;13.50;;;;;;;7.28;100.00;98631.75;6277635;28;20125;-75
2022/02/17 09:31:32;;;;;;;28.63;14.73;;;;;;;7.44;100.00;98671.25;6277869;28;20049;-76
2022/02/17 09:34:34;;;;;;;42.30;20.48;;;;;;;7.39;100.00;98713.13;6294225;28;20139;-72
2022/02/17 09:37:34;;;;;;;32.05;20.90;;;;;;;7.53;100.00;98719.91;6278058;28;20047;-73
2022/02/17 09:40:36;;;;;;;22.60;12.48;;;;;;;7.63;100.00;98676.81;6294169;28;20484;-73
2022/02/17 09:43:38;;;;;;;19.70;12.10;;;;;;;7.70;100.00;98653.84;6277760;28;20032;-73
2022/02/17 09:46:45;;;;;;;;;;;;;;;7.69;100.00;98647.00;6278045;28;20055;-76
2022/02/17 09:49:46;;;;;;;24.25;13.50;;;;;;;7.61;100.00;98638.91;6294242;28;19921;-73
2022/02/17 09:52:47;;;;;;;23.45;12.70;;;;;;;7.68;100.00;98598.63;6260905;28;20122;-73
2022/02/17 09:55:51;;;;;;;23.80;14.35;;;;;;;7.88;100.00;98597.16;6294217;28;20036;-72
2022/02/17 09:58:53;;;;;;;23.85;13.48;;;;;;;8.04;100.00;98561.31;6295273;28;20071;-72
2022/02/17 10:02:00;;;;;;;20.65;12.60;;;;;;;8.10;100.00;98533.25;6277139;28;20102;-76
2022/02/17 10:05:04;;;;;;;21.58;11.82;;;;;;;8.21;100.00;98523.66;6295128;28;20033;-76
2022/02/17 10:08:20;;;;;;;24.27;14.63;;;;;;;8.52;100.00;98555.16;6293869;28;20503;-76
2022/02/17 10:11:29;;;;;;;22.27;13.07;;;;;;;8.35;100.00;98535.63;6295428;28;20048;-76
2022/02/17 10:14:30;;;;;;;23.70;13.32;;;;;;;8.31;100.00;98546.38;6295042;28;20094;-72
2022/02/17 10:17:31;;;;;;;24.83;14.70;;;;;;;8.50;100.00;98548.44;6280270;28;20040;-72
2022/02/17 10:21:13;;;;;;;25.42;14.95;;;;;;;8.73;100.00;98544.06;6281610;28;20056;-73
2022/02/17 10:24:33;;;;;;;23.52;11.73;;;;;;;9.11;100.00;98503.81;6247074;28;20042;-73
2022/02/17 10:27:35;;;;;;;23.23;12.73;;;;;;;9.48;100.00;98480.88;6234421;28;20103;-72
2022/02/17 10:30:40;;;;;;;18.80;11.68;;;;;;;9.73;100.00;98474.47;6298113;28;20479;-73
2022/02/17 10:33:43;;;;;;;17.85;11.35;;;;;;;9.91;100.00;98492.97;6299192;28;20447;-76
2022/02/17 10:36:45;;;;;;;17.00;10.98;;;;;;;9.71;100.00;98499.81;6297899;28;20048;-72
2022/02/17 10:39:45;;;;;;;18.70;11.57;;;;;;;9.61;100.00;98517.13;6297873;28;20556;-75
2022/02/17 10:43:05;;;;;;;18.95;11.77;;;;;;;9.37;100.00;98486.09;6297695;28;20049;-75
2022/02/17 10:46:10;;;;;;;21.58;11.63;;;;;;;9.14;100.00;98488.81;6297685;28;20059;-75
2022/02/17 10:49:16;;;;;;;16.48;9.20;;;;;;;9.63;100.00;98463.16;6298866;28;20430;-75
2022/02/17 10:52:33;;;;;;;25.25;11.73;;;;;;;10.02;100.00;98458.19;6298880;28;20044;-76
2022/02/17 10:55:34;;;;;;;14.55;9.25;;;;;;;9.71;98.94;98446.91;6298624;28;20044;-76
2022/02/17 10:58:38;;;;;;;15.18;9.75;;;;;;;9.72;99.40;98443.31;6280628;28;20525;-75
2022/02/17 11:01:39;;;;;;;15.68;8.75;;;;;;;9.72;96.40;98435.50;6297416;28;20051;-75
2022/02/17 11:04:40;;;;;;;16.67;9.75;;;;;;;9.70;98.33;98448.69;6297166;28;20476;-71
2022/02/17 11:07:43;;;;;;;12.43;7.47;;;;;;;9.49;98.43;98433.03;6280764;28;20040;-71
2022/02/17 11:10:44;;;;;;;15.13;9.00;;;;;;;9.44;100.00;98428.22;6297156;28;20060;-72
2022/02/17 11:13:50;;;;;;;15.35;8.60;;;;;;;9.54;96.97;98389.22;6313939;28;20051;-72
2022/02/17 11:16:51;;;;;;;14.60;7.70;;;;;;;9.62;93.52;98397.22;6280237;28;20053;-71
2022/02/17 11:19:52;;;;;;;9.73;6.82;;;;;;;9.74;91.57;98391.94;6298163;28;20044;-75
2022/02/17 11:22:53;;;;;;;13.68;7.13;;;;;;;9.74;90.62;98371.09;6313648;28;20070;-75
2022/02/17 11:25:54;;;;;;;11.60;7.07;;;;;;;9.84;87.17;98370.22;6296808;28;20041;-75
2022/02/17 11:29:27;;;;;;;11.98;5.93;;;;;;;9.98;87.42;98370.81;6296703;28;20041;-75
2022/02/17 11:32:28;;;;;;;10.90;7.20;;;;;;;10.16;85.99;98324.94;6297897;28;20044;-74
2022/02/17 11:35:32;;;;;;;11.57;7.20;;;;;;;10.51;85.78;98325.44;6280124;28;20506;-75
2022/02/17 11:38:34;;;;;;;12.52;7.60;;;;;;;10.77;87.16;98316.13;6280436;28;20135;-71
2022/02/17 11:41:37;;;;;;;10.98;6.40;;;;;;;10.91;82.59;98314.88;6296159;28;20052;-71
2022/02/17 11:44:38;;;;;;;9.52;5.30;;;;;;;10.62;77.71;98320.09;6296335;28;20040;-75
2022/02/17 11:48:01;;;;;;;7.07;4.57;;;;;;;10.24;75.44;98324.28;6280095;28;20106;-76
2022/02/17 11:51:22;;;;;;;9.38;5.65;;;;;;;10.12;77.83;98320.94;6297358;28;20067;-75
2022/02/17 11:54:23;;;;;;;9.63;5.55;;;;;;;10.01;77.12;98314.06;6297380;28;20048;-71
2022/02/17 11:57:35;;;;;;;10.18;6.43;;;;;;;10.06;80.21;98319.69;6279591;28;20063;-71
2022/02/17 12:00:36;;;;;;;8.75;5.47;;;;;;;9.96;79.51;98308.41;6297216;28;20380;-70
2022/02/17 12:04:04;;;;;;;8.43;5.35;;;;;;;9.95;78.95;98314.59;6312822;28;20048;-70
2022/02/17 12:07:27;;;;;;;12.95;6.25;;;;;;;10.11;81.04;98318.47;6297073;28;20569;-74
2022/02/17 12:10:29;;;;;;;15.85;7.22;;;;;;;10.07;78.37;98312.72;6265288;28;20072;-74
2022/02/17 12:13:30;;;;;;;10.88;6.90;;;;;;;10.19;78.57;98306.44;6296038;28;20052;-74
2022/02/17 12:16:38;;;;;;;9.63;6.45;;;;;;;10.35;80.25;98311.13;6279134;28;20040;-74
2022/02/17 12:19:39;;;;;;;12.45;7.00;;;;;;;10.38;80.23;98310.88;6296805;28;20286;-74
2022/02/17 12:22:48;;;;;;;8.60;5.68;;;;;;;10.36;79.51;98306.78;6296701;28;20037;-74
2022/02/17 12:25:49;;;;;;;9.18;5.93;;;;;;;10.46;80.07;98299.78;6296557;28;20502;-70
2022/02/17 12:28:50;;;;;;;11.18;6.25;;;;;;;10.60;79.60;98311.59;6295451;28;20049;-70
2022/02/17 12:31:52;;;;;;;11.48;6.75;;;;;;;10.92;76.67;98323.56;6296352;28;20487;-70
2022/02/17 12:34:53;;;;;;;15.00;6.45;;;;;;;11.05;75.95;98332.72;6329397;28;20569;-75
2022/02/17 12:38:05;;;;;;;9.90;5.82;;;;;;;10.62;73.86;98359.22;6278454;28;20052;-74
2022/02/17 12:41:13;;;;;;;15.73;6.70;;;;;;;10.46;75.18;98444.03;6294374;28;20056;-70
2022/02/17 12:44:35;;;;;;;15.70;7.40;;;;;;;10.16;86.40;98451.81;6278600;28;20045;-74
2022/02/17 12:47:37;;;;;;;18.75;8.05;;;;;;;9.90;92.74;98470.44;6295258;28;20139;-74
2022/02/17 12:50:41;;;;;;;13.88;8.70;;;;;;;9.62;98.00;98479.75;6294970;28;20076;-74
2022/02/17 12:53:51;;;;;;;14.45;8.60;;;;;;;9.37;99.18;98447.91;6295048;28;20716;-74
2022/02/17 12:56:53;;;;;;;14.50;9.25;;;;;;;9.48;100.00;98460.84;6296153;28;20044;-74
2022/02/17 12:59:56;;;;;;;16.63;9.98;;;;;;;9.52;98.46;98460.63;6295105;28;20055;-72
2022/02/17 13:02:57;;;;;;;17.40;10.38;;;;;;;9.70;95.88;98440.88;6294934;28;20112;-75
2022/02/17 13:09:20;;;;;;;16.95;10.30;;;;;;;9.82;93.59;98433.78;6295033;28;20048;-71
2022/02/17 13:12:21;;;;;;;15.45;10.07;;;;;;;10.03;94.23;98429.41;6296090;28;20036;-71
2022/02/17 13:15:22;;;;;;;17.67;9.73;;;;;;;10.01;94.53;98410.47;6311470;28;20062;-74
2022/02/17 13:18:23;;;;;;;17.98;10.55;;;;;;;10.14;91.64;98384.19;6278315;28;20098;-71
2022/02/17 13:21:24;;;;;;;12.30;7.95;;;;;;;10.05;91.25;98375.38;6295729;28;20040;-70
2022/02/17 13:24:27;;;;;;;16.13;9.38;;;;;;;10.06;93.45;98366.59;6277977;28;20347;-71
2022/02/17 13:27:34;;;;;;;13.70;8.02;;;;;;;9.94;93.25;98370.25;6328300;28;20055;-70
2022/02/17 13:30:36;;;;;;;11.85;7.65;;;;;;;9.93;94.55;98360.78;6295853;28;20090;-71
2022/02/17 13:33:37;;;;;;;14.32;7.32;;;;;;;9.95;94.72;98368.47;6312179;28;20128;-70
2022/02/17 13:36:41;;;;;;;13.13;7.50;;;;;;;9.92;93.22;98351.31;6294436;28;20043;-70
2022/02/17 13:39:55;;;;;;;12.80;6.85;;;;;;;9.92;94.05;98347.88;6294255;28;20080;-70
2022/02/17 13:43:01;;;;;;;16.65;9.63;;;;;;;9.91;93.36;98369.69;6294301;28;20045;-70
2022/02/17 13:46:03;;;;;;;14.73;8.25;;;;;;;9.89;95.16;98378.44;6293328;28;20602;-74
2022/02/17 13:49:15;;;;;;;13.55;7.90;;;;;;;9.87;94.80;98369.13;6294995;28;20044;-74
2022/02/17 13:52:20;;;;;;;17.98;7.43;;;;;;;9.85;95.54;98360.63;6295289;28;20141;-74
2022/02/17 13:55:24;;;;;;;12.93;7.47;;;;;;;9.87;95.56;98343.06;6298223;28;20051;-74
2022/02/17 13:58:26;;;;;;;12.40;6.78;;;;;;;9.82;95.65;98351.28;6298321;28;20125;-74
2022/02/17 14:01:41;;;;;;;15.95;7.80;;;;;;;9.74;96.20;98348.50;6296696;28;20491;-74
2022/02/17 14:04:54;;;;;;;13.20;7.03;;;;;;;9.66;94.89;98319.69;6298313;28;20047;-74
2022/02/17 14:07:55;;;;;;;13.20;5.15;;;;;;;9.69;93.81;98309.81;6297661;28;20033;-74
2022/02/17 14:10:56;;;;;;;11.57;5.55;;;;;;;9.85;93.69;98316.34;6298338;28;20043;-74
2022/02/17 14:13:56;;;;;;;15.13;6.45;;;;;;;9.82;91.41;98321.78;6299149;28;20040;-73
2022/02/17 14:16:57;;;;;;;6.70;4.03;;;;;;;9.93;90.17;98331.31;6279106;28;20052;-73